Time;durP1;ratioP1;P1;durP2;ratioP2;P2;SDS_P1;SDS_P2;PMS_P1;PMS_P2;Temp;Humidity;BMP_temperature;BMP_pressure;BME280_temperature;BME280_humidity;BME280_pressure;Samples;Min_cycle;Max_cycle;Signal;HPM_P1;HPM_P2
2022/11/29 00:01:32;;;;;;;45.23;18.87;;;;;;;4.92;98.20;101102.66;5052566;28;20458;-72
2022/11/29 00:04:00;;;;;;;39.93;18.67;;;;;;;4.91;98.03;101108.25;5053489;28;20442;-72
2022/11/29 00:06:29;;;;;;;45.80;19.77;;;;;;;4.86;98.16;101116.25;5052641;28;20486;-72
2022/11/29 00:08:58;;;;;;;36.50;17.23;;;;;;;4.87;97.19;101117.88;5052053;28;20536;-72
2022/11/29 00:14:14;;;;;;;39.27;18.67;;;;;;;4.79;97.24;101114.56;5053072;28;20405;-65
2022/11/29 00:16:42;;;;;;;47.00;16.80;;;;;;;4.77;97.10;101108.63;5052389;28;20458;-67
2022/11/29 00:19:09;;;;;;;35.67;16.53;;;;;;;4.78;97.09;101118.31;5053170;28;20552;-70
2022/11/29 00:21:35;;;;;;;34.13;16.83;;;;;;;4.77;96.90;101113.19;5051474;28;20485;-73
2022/11/29 00:24:04;;;;;;;35.67;17.47;;;;;;;4.74;96.82;101113.72;5053207;28;20442;-71
2022/11/29 00:26:30;;;;;;;35.60;16.73;;;;;;;4.74;97.24;101106.47;5051563;28;20549;-72
2022/11/29 00:28:57;;;;;;;33.43;16.83;;;;;;;4.79;97.98;101111.88;5052931;28;20484;-72
2022/11/29 00:31:26;;;;;;;35.73;16.03;;;;;;;4.84;98.01;101105.78;5051438;28;20507;-72
2022/11/29 00:33:53;;;;;;;39.00;15.80;;;;;;;4.86;98.02;101110.88;5052998;28;20443;-71
2022/11/29 00:36:20;;;;;;;40.60;16.40;;;;;;;4.90;98.21;101117.38;5051622;28;20549;-72
2022/11/29 00:38:46;;;;;;;35.60;14.50;;;;;;;4.85;98.78;101115.44;5052949;28;20501;-72
2022/11/29 00:41:15;;;;;;;30.93;14.40;;;;;;;4.82;99.03;101107.88;5051175;28;21049;-72
2022/11/29 00:43:41;;;;;;;35.40;12.83;;;;;;;4.89;98.98;101115.75;5052736;28;20452;-72
2022/11/29 00:46:09;;;;;;;34.40;14.07;;;;;;;4.82;99.33;101115.94;5052079;28;20454;-72
2022/11/29 00:48:36;;;;;;;30.00;14.37;;;;;;;4.85;98.70;101115.44;5052569;28;20971;-72
2022/11/29 00:51:04;;;;;;;35.53;14.80;;;;;;;4.91;98.43;101114.44;5051106;28;20485;-72
2022/11/29 00:53:31;;;;;;;30.10;14.30;;;;;;;4.91;98.41;101110.94;5052981;28;20453;-72
2022/11/29 00:55:58;;;;;;;32.60;13.90;;;;;;;4.92;98.05;101107.22;5051003;28;20482;-72
2022/11/29 00:58:26;;;;;;;34.73;14.20;;;;;;;4.97;98.30;101109.97;5052542;28;20545;-72
2022/11/29 01:00:53;;;;;;;31.97;13.43;;;;;;;5.01;98.20;101113.75;5052718;28;20445;-72
2022/11/29 01:03:19;;;;;;;34.37;14.10;;;;;;;4.95;98.71;101117.44;5055861;28;20951;-72
2022/11/29 01:05:46;;;;;;;28.17;13.00;;;;;;;4.98;98.44;101116.94;5056599;28;20444;-72
2022/11/29 01:08:14;;;;;;;27.80;13.13;;;;;;;5.05;97.63;101114.88;5056317;28;20542;-72
2022/11/29 01:10:42;;;;;;;44.00;15.27;;;;;;;5.02;97.41;101121.56;5055793;28;20994;-72
2022/11/29 01:13:09;;;;;;;30.27;12.53;;;;;;;5.01;97.07;101119.94;5054755;28;20464;-72
2022/11/29 01:15:37;;;;;;;29.90;12.63;;;;;;;5.00;96.65;101117.50;5055372;28;20959;-73
2022/11/29 01:18:04;;;;;;;31.70;11.60;;;;;;;4.97;96.62;101121.50;5056192;28;20488;-72
2022/11/29 01:20:31;;;;;;;39.67;13.07;;;;;;;4.89;96.58;101116.56;5055548;28;20492;-73
2022/11/29 01:22:58;;;;;;;26.57;12.90;;;;;;;4.92;96.30;101109.91;5054695;28;20553;-71
2022/11/29 01:25:24;;;;;;;26.80;13.13;;;;;;;4.95;96.06;101114.75;5055425;28;20470;-72
2022/11/29 01:27:51;;;;;;;27.43;12.80;;;;;;;5.00;96.21;101117.50;5055926;28;20442;-72
2022/11/29 01:30:18;;;;;;;26.07;12.27;;;;;;;4.95;96.61;101117.44;5055280;28;20505;-73
2022/11/29 01:32:46;;;;;;;28.70;12.97;;;;;;;4.94;96.66;101116.63;5038396;28;21247;-73
2022/11/29 01:35:12;;;;;;;26.80;12.57;;;;;;;4.96;96.66;101122.56;5056090;28;20452;-72
2022/11/29 01:37:39;;;;;;;29.50;13.90;;;;;;;5.00;97.04;101120.16;5056183;28;20442;-73
2022/11/29 01:40:07;;;;;;;32.93;12.50;;;;;;;5.06;97.34;101121.88;5054040;28;20505;-73
2022/11/29 01:42:33;;;;;;;33.00;13.30;;;;;;;5.03;97.69;101117.00;5055740;28;20453;-73
2022/11/29 01:45:04;;;;;;;33.00;12.77;;;;;;;5.05;97.71;101118.38;5053921;28;20951;-73
2022/11/29 01:47:32;;;;;;;35.93;12.80;;;;;;;5.07;97.70;101112.75;5055896;28;20431;-73
2022/11/29 01:50:02;;;;;;;33.63;12.50;;;;;;;5.12;97.48;101112.81;5054070;28;20470;-73
2022/11/29 01:52:31;;;;;;;34.20;13.90;;;;;;;5.14;97.06;101115.25;5055863;28;20466;-72
2022/11/29 01:55:01;;;;;;;25.47;13.03;;;;;;;5.14;97.43;101115.25;5054772;28;20485;-74
2022/11/29 01:57:28;;;;;;;31.40;13.73;;;;;;;5.13;97.55;101117.09;5055839;28;20469;-72
2022/11/29 02:00:06;;;;;;;29.33;13.67;;;;;;;5.15;97.11;101111.50;5054097;28;20490;-73
2022/11/29 02:02:36;;;;;;;28.07;13.70;;;;;;;5.16;96.58;101116.59;5054832;28;20461;-73
2022/11/29 02:05:05;;;;;;;31.37;13.20;;;;;;;5.15;96.29;101117.69;5053687;28;20978;-72
2022/11/29 02:07:32;;;;;;;25.97;12.50;;;;;;;5.20;96.06;101114.25;5055391;28;20481;-73
2022/11/29 02:09:58;;;;;;;31.10;13.70;;;;;;;5.11;95.60;101113.06;5054351;28;20484;-73
2022/11/29 02:12:34;;;;;;;29.63;13.17;;;;;;;5.11;95.35;101108.50;5054113;28;20573;-73
2022/11/29 02:15:12;;;;;;;37.80;14.03;;;;;;;5.15;95.51;101120.38;5053973;28;20561;-73
2022/11/29 02:17:52;;;;;;;25.37;12.00;;;;;;;5.14;95.95;101110.69;5055166;28;20942;-73
2022/11/29 02:20:42;;;;;;;31.33;13.83;;;;;;;5.22;96.23;101115.63;5054570;28;20491;-73
2022/11/29 02:23:27;;;;;;;30.00;12.50;;;;;;;5.21;96.76;101111.28;5055089;28;20437;-73
2022/11/29 02:26:08;;;;;;;35.50;13.93;;;;;;;5.29;96.54;101116.22;5053101;28;20482;-72
2022/11/29 02:29:16;;;;;;;26.50;12.40;;;;;;;5.28;96.54;101125.34;5054160;28;20490;-74
2022/11/29 02:32:08;;;;;;;26.73;12.60;;;;;;;5.28;96.72;101121.84;5055108;28;20561;-72
2022/11/29 02:34:53;;;;;;;33.93;12.73;;;;;;;5.23;96.90;101129.84;5053294;28;20455;-72
2022/11/29 02:37:41;;;;;;;30.43;13.03;;;;;;;5.22;97.48;101131.72;5053005;28;20468;-72
2022/11/29 02:40:23;;;;;;;34.23;11.57;;;;;;;5.17;97.12;101128.16;5054935;28;20540;-72
2022/11/29 02:43:09;;;;;;;33.43;13.10;;;;;;;5.20;95.97;101128.47;5053699;28;20458;-74
2022/11/29 02:45:56;;;;;;;25.60;11.93;;;;;;;5.12;95.65;101125.41;5037858;28;20556;-73
2022/11/29 02:48:53;;;;;;;40.13;13.53;;;;;;;5.13;95.46;101122.47;5054295;28;20516;-73
2022/11/29 02:51:28;;;;;;;23.50;11.90;;;;;;;5.14;95.07;101134.84;5047626;28;20517;-73
2022/11/29 02:54:01;;;;;;;32.33;13.40;;;;;;;5.08;94.83;101135.84;5053571;28;20485;-73
2022/11/29 02:56:37;;;;;;;29.93;11.63;;;;;;;5.07;94.92;101132.34;5053270;28;20518;-73
2022/11/29 02:59:09;;;;;;;33.73;13.20;;;;;;;5.11;94.83;101127.28;5051588;28;20489;-73
2022/11/29 03:01:44;;;;;;;35.63;12.87;;;;;;;5.11;95.25;101132.66;5052882;28;20465;-74
2022/11/29 03:04:21;;;;;;;27.23;12.60;;;;;;;5.12;95.75;101136.97;5053667;28;20478;-73
2022/11/29 03:06:58;;;;;;;31.67;12.73;;;;;;;5.10;96.55;101132.94;5052765;28;20451;-73
2022/11/29 03:09:33;;;;;;;38.00;14.20;;;;;;;5.04;97.60;101142.78;5034514;28;20459;-73
2022/11/29 03:12:07;;;;;;;31.67;13.40;;;;;;;5.14;97.26;101137.53;5039136;28;20556;-74
2022/11/29 03:14:43;;;;;;;32.43;14.03;;;;;;;5.17;97.38;101139.72;5054261;28;20431;-73
2022/11/29 03:17:20;;;;;;;34.50;14.27;;;;;;;5.17;97.76;101142.38;5053253;28;20454;-74
2022/11/29 03:20:02;;;;;;;32.07;14.00;;;;;;;5.21;97.48;101142.72;5053855;28;21045;-73
2022/11/29 03:22:42;;;;;;;32.77;14.23;;;;;;;5.20;97.71;101144.59;5053247;28;20552;-72
2022/11/29 03:25:15;;;;;;;30.20;14.17;;;;;;;5.22;97.83;101145.16;5052856;28;20485;-73
2022/11/29 03:27:47;;;;;;;37.20;15.30;;;;;;;5.17;97.91;101145.06;5052734;28;20462;-74
2022/11/29 03:30:17;;;;;;;34.73;13.43;;;;;;;5.14;98.03;101152.84;5053972;28;20563;-73
2022/11/29 03:32:51;;;;;;;34.37;12.57;;;;;;;5.16;97.96;101146.16;5053123;28;20482;-74
2022/11/29 03:35:24;;;;;;;38.77;13.60;;;;;;;5.14;98.07;101153.66;5053778;28;20508;-73
2022/11/29 03:37:59;;;;;;;31.20;12.93;;;;;;;5.10;98.21;101160.59;5052285;28;20533;-73
2022/11/29 03:40:30;;;;;;;35.77;13.53;;;;;;;5.17;98.41;101157.69;5053521;28;20509;-73
2022/11/29 03:43:02;;;;;;;40.40;14.30;;;;;;;5.09;98.57;101153.59;5052154;28;20446;-73
2022/11/29 03:45:34;;;;;;;31.60;15.60;;;;;;;5.04;98.75;101162.38;5054018;28;20470;-73
2022/11/29 03:48:07;;;;;;;27.50;12.27;;;;;;;5.00;98.33;101155.06;5051848;28;20458;-73
2022/11/29 03:50:38;;;;;;;37.17;14.57;;;;;;;4.99;97.72;101161.50;5053876;28;20465;-73
2022/11/29 03:53:15;;;;;;;33.00;12.37;;;;;;;5.01;97.42;101165.59;5052769;28;20558;-74
2022/11/29 03:55:50;;;;;;;41.00;14.17;;;;;;;4.99;97.44;101162.31;5053755;28;20423;-73
2022/11/29 03:58:32;;;;;;;25.70;12.97;;;;;;;4.94;96.98;101166.81;5051580;28;20497;-73
2022/11/29 04:01:32;;;;;;;34.70;14.90;;;;;;;4.91;97.47;101161.94;5100190;22;20917;-68
2022/11/29 04:04:46;;;;;;;28.80;11.93;;;;;;;4.92;97.41;101166.25;5092666;28;20484;-68
2022/11/29 04:07:30;;;;;;;35.80;13.47;;;;;;;4.89;97.22;101164.88;5053178;28;20451;-70
2022/11/29 04:10:14;;;;;;;41.13;15.60;;;;;;;4.81;97.71;101159.94;5091437;28;20440;-70
2022/11/29 04:13:12;;;;;;;34.50;13.30;;;;;;;4.83;98.19;101162.38;5071958;28;20469;-69
2022/11/29 04:16:26;;;;;;;33.67;15.27;;;;;;;4.87;98.52;101163.50;5067901;28;20449;-68
2022/11/29 04:19:27;;;;;;;33.37;13.40;;;;;;;4.90;99.05;101157.63;5010091;28;20464;-68
2022/11/29 04:22:39;;;;;;;27.80;12.87;;;;;;;4.90;99.26;101161.13;5049661;28;20456;-69
2022/11/29 04:25:42;;;;;;;35.70;13.33;;;;;;;4.88;99.35;101163.25;5053229;28;20430;-69
2022/11/29 04:28:30;;;;;;;29.10;13.13;;;;;;;4.90;99.69;101163.00;5060986;28;20540;-69
2022/11/29 04:31:04;;;;;;;31.13;15.20;;;;;;;4.99;99.39;101169.56;5073094;28;20516;-68
2022/11/29 04:33:53;;;;;;;36.73;13.13;;;;;;;5.01;99.38;101160.22;5072131;28;20471;-68
2022/11/29 04:36:38;;;;;;;33.60;13.43;;;;;;;5.01;98.93;101156.72;5073824;28;20425;-68
2022/11/29 04:39:28;;;;;;;35.50;15.13;;;;;;;5.01;99.36;101167.47;5075665;28;20464;-68
2022/11/29 04:42:25;;;;;;;33.87;12.93;;;;;;;5.05;98.91;101163.22;5057102;28;20882;-68
2022/11/29 04:45:33;;;;;;;30.70;13.60;;;;;;;5.01;98.81;101170.13;5057191;28;20496;-68
2022/11/29 04:48:16;;;;;;;30.20;14.67;;;;;;;5.00;99.28;101173.88;5072458;28;20457;-69
2022/11/29 04:50:55;;;;;;;42.53;14.10;;;;;;;4.99;99.34;101178.41;5056912;28;20472;-68
2022/11/29 04:53:46;;;;;;;30.97;13.63;;;;;;;5.00;99.02;101180.06;5056887;28;20466;-68
2022/11/29 04:56:23;;;;;;;34.90;14.93;;;;;;;4.96;98.75;101170.06;5058936;28;20960;-68
2022/11/29 04:58:59;;;;;;;32.23;12.90;;;;;;;4.98;97.96;101176.00;5075735;28;20479;-68
2022/11/29 05:01:35;;;;;;;29.87;14.03;;;;;;;4.98;97.53;101176.81;5076262;28;20560;-68
2022/11/29 05:04:10;;;;;;;34.73;14.40;;;;;;;5.00;97.27;101176.53;5075770;28;20485;-69
2022/11/29 05:06:43;;;;;;;36.40;13.40;;;;;;;5.03;96.73;101176.06;5076768;28;20467;-68
2022/11/29 05:09:18;;;;;;;34.47;14.03;;;;;;;4.94;97.11;101181.03;5075708;28;20473;-68
2022/11/29 05:11:58;;;;;;;37.33;14.07;;;;;;;4.92;97.34;101185.06;5076158;28;20572;-68
2022/11/29 05:14:37;;;;;;;37.60;14.70;;;;;;;4.85;97.78;101197.84;5075520;28;20457;-68
2022/11/29 05:17:25;;;;;;;26.77;13.20;;;;;;;4.88;97.95;101189.28;5076518;28;20854;-68
2022/11/29 05:20:24;;;;;;;38.30;12.93;;;;;;;4.88;99.00;101190.09;5075055;28;20460;-68
2022/11/29 05:23:05;;;;;;;28.13;12.40;;;;;;;4.91;99.56;101197.63;5069609;28;20467;-68
2022/11/29 05:25:45;;;;;;;29.60;11.17;;;;;;;4.96;99.55;101194.25;5075097;28;20965;-68
2022/11/29 05:28:20;;;;;;;30.10;13.73;;;;;;;4.92;99.88;101195.78;5076346;28;20428;-69
2022/11/29 05:31:23;;;;;;;37.30;12.87;;;;;;;4.97;99.84;101204.72;5075073;28;20469;-69
2022/11/29 05:34:08;;;;;;;33.27;14.67;;;;;;;4.99;99.85;101207.16;5074893;28;20456;-68
2022/11/29 05:36:42;;;;;;;32.13;13.53;;;;;;;4.98;100.00;101208.22;5076191;28;20427;-68
2022/11/29 05:39:35;;;;;;;34.70;14.53;;;;;;;5.03;99.65;101210.97;5075002;28;20452;-68
2022/11/29 05:42:19;;;;;;;30.83;13.90;;;;;;;5.04;99.69;101210.69;5072148;28;20853;-69
2022/11/29 05:44:50;;;;;;;25.90;12.60;;;;;;;5.03;99.73;101213.66;5075796;28;20516;-68
2022/11/29 05:47:25;;;;;;;27.87;12.90;;;;;;;4.94;100.00;101209.75;5073611;28;20576;-68
2022/11/29 05:50:03;;;;;;;30.57;12.13;;;;;;;5.00;100.00;101220.34;5075506;28;20464;-69
2022/11/29 05:52:43;;;;;;;33.43;15.40;;;;;;;5.00;99.94;101214.13;5075431;28;20512;-68
2022/11/29 05:55:24;;;;;;;33.03;13.50;;;;;;;4.93;100.00;101218.88;5072704;28;20453;-68
2022/11/29 05:57:58;;;;;;;43.83;14.17;;;;;;;5.00;99.85;101222.19;5074722;28;20517;-69
2022/11/29 06:00:27;;;;;;;33.30;14.27;;;;;;;5.00;99.36;101228.38;5071062;28;21042;-68
2022/11/29 06:03:02;;;;;;;31.10;12.30;;;;;;;4.96;99.05;101226.44;5074270;28;20488;-68
2022/11/29 06:05:35;;;;;;;34.60;14.90;;;;;;;4.95;98.59;101232.84;5069283;28;20456;-68
2022/11/29 06:08:08;;;;;;;34.83;15.13;;;;;;;4.92;98.04;101233.38;5074750;28;20425;-69
2022/11/29 06:10:39;;;;;;;35.60;14.50;;;;;;;4.94;97.96;101240.09;5073552;28;20569;-68
2022/11/29 06:13:20;;;;;;;35.80;15.17;;;;;;;4.88;98.08;101241.09;5073773;28;20469;-68
2022/11/29 06:16:15;;;;;;;39.70;15.03;;;;;;;4.89;98.01;101244.59;5074265;28;20468;-68
2022/11/29 06:19:10;;;;;;;35.00;13.53;;;;;;;4.90;98.56;101251.56;5074443;28;20466;-70
2022/11/29 06:21:44;;;;;;;36.47;14.10;;;;;;;4.89;98.86;101250.78;5076146;28;20461;-69
2022/11/29 06:24:31;;;;;;;33.20;11.97;;;;;;;4.88;99.26;101254.53;5074515;28;20460;-68
2022/11/29 06:27:17;;;;;;;34.30;13.60;;;;;;;4.90;99.35;101248.91;5073768;28;20457;-69
2022/11/29 06:29:52;;;;;;;34.27;16.23;;;;;;;4.90;99.71;101255.06;5075412;28;20426;-68
2022/11/29 06:32:30;;;;;;;34.20;15.57;;;;;;;4.93;99.52;101261.84;5074888;28;20859;-68
2022/11/29 06:35:02;;;;;;;34.73;14.70;;;;;;;4.92;99.43;101257.53;5075288;28;20421;-69
2022/11/29 06:37:36;;;;;;;40.57;13.70;;;;;;;4.95;99.58;101265.06;5074775;28;20428;-69
2022/11/29 06:40:03;;;;;;;32.40;14.20;;;;;;;4.90;99.76;101268.50;5074956;28;20516;-69
2022/11/29 06:42:30;;;;;;;34.27;13.63;;;;;;;4.93;98.82;101272.56;5074948;28;20429;-69
2022/11/29 06:44:57;;;;;;;33.57;14.17;;;;;;;4.91;97.90;101274.66;5074930;28;20449;-69
2022/11/29 06:47:30;;;;;;;29.27;12.77;;;;;;;4.89;97.69;101282.97;5074565;28;20437;-69
2022/11/29 06:50:13;;;;;;;26.90;13.40;;;;;;;4.88;97.50;101284.03;5074800;28;20457;-69
2022/11/29 06:52:49;;;;;;;28.67;12.80;;;;;;;4.87;97.37;101285.09;5074298;28;20556;-69
2022/11/29 06:55:24;;;;;;;36.47;15.03;;;;;;;4.84;97.23;101279.41;5074665;28;20804;-70
2022/11/29 06:58:03;;;;;;;40.03;15.43;;;;;;;4.87;97.02;101286.94;5074598;28;20464;-72
2022/11/29 07:00:39;;;;;;;37.70;14.30;;;;;;;4.86;96.88;101283.47;5073403;28;20575;-70
2022/11/29 07:03:19;;;;;;;33.77;15.47;;;;;;;4.87;97.38;101289.63;5073984;28;20488;-69
2022/11/29 07:05:48;;;;;;;31.30;14.57;;;;;;;4.85;97.39;101286.41;5074097;28;20982;-70
2022/11/29 07:08:18;;;;;;;34.53;14.57;;;;;;;4.84;97.31;101290.16;5074265;28;20837;-70
2022/11/29 07:10:48;;;;;;;32.27;14.90;;;;;;;4.84;97.31;101287.47;5074572;28;20463;-70
2022/11/29 07:13:16;;;;;;;35.40;14.27;;;;;;;4.86;97.96;101290.69;5074203;28;20481;-69
2022/11/29 07:15:53;;;;;;;32.40;14.67;;;;;;;4.76;98.59;101294.03;5074179;28;20488;-70
2022/11/29 07:18:28;;;;;;;30.10;13.40;;;;;;;4.79;98.83;101293.56;5074286;28;20429;-67
2022/11/29 07:21:09;;;;;;;37.27;14.17;;;;;;;4.85;98.00;101295.25;5074073;28;20471;-68
2022/11/29 07:23:44;;;;;;;38.60;15.30;;;;;;;4.87;97.27;101298.53;5074101;28;20418;-69
2022/11/29 07:26:20;;;;;;;37.47;15.77;;;;;;;4.87;97.33;101305.75;5074044;28;20460;-68
2022/11/29 07:29:02;;;;;;;30.37;14.30;;;;;;;4.92;96.79;101297.78;5074112;28;20457;-68
2022/11/29 07:31:41;;;;;;;39.90;14.70;;;;;;;4.93;96.71;101299.41;5073872;28;20469;-68
2022/11/29 07:34:17;;;;;;;31.20;14.00;;;;;;;4.94;97.14;101303.72;5073551;28;21028;-68
2022/11/29 07:36:56;;;;;;;39.00;15.47;;;;;;;4.93;97.42;101304.78;5073870;28;20418;-68
2022/11/29 07:39:38;;;;;;;35.47;15.03;;;;;;;4.92;98.03;101305.84;5073552;28;20436;-68
2022/11/29 07:42:12;;;;;;;35.00;13.47;;;;;;;5.01;97.99;101312.44;5073655;28;20457;-69
2022/11/29 07:44:49;;;;;;;33.70;14.03;;;;;;;5.04;98.26;101310.03;5073731;28;20532;-69
2022/11/29 07:47:16;;;;;;;40.40;15.30;;;;;;;5.04;98.72;101317.28;5073720;28;20433;-69
2022/11/29 07:49:42;;;;;;;39.53;15.97;;;;;;;5.10;98.59;101323.56;5073339;28;20910;-69
2022/11/29 07:52:12;;;;;;;28.23;12.67;;;;;;;5.12;98.96;101321.44;5073122;28;20460;-69
2022/11/29 07:54:40;;;;;;;41.27;15.50;;;;;;;5.16;98.62;101325.25;5073602;28;20798;-69
2022/11/29 07:57:06;;;;;;;30.10;13.50;;;;;;;5.13;98.80;101323.84;5073520;28;20528;-68
2022/11/29 07:59:33;;;;;;;36.20;15.83;;;;;;;5.22;98.65;101329.63;5073525;28;20469;-68
2022/11/29 08:02:00;;;;;;;29.90;14.37;;;;;;;5.24;98.17;101325.66;5072217;28;20501;-69
2022/11/29 08:04:26;;;;;;;35.20;14.27;;;;;;;5.29;97.88;101331.09;5072703;28;20449;-69
2022/11/29 08:06:53;;;;;;;33.00;13.50;;;;;;;5.17;97.74;101327.69;5072656;28;20477;-68
2022/11/29 08:09:21;;;;;;;34.20;14.77;;;;;;;5.23;96.82;101331.28;5072599;28;20856;-69
2022/11/29 08:11:47;;;;;;;39.87;15.10;;;;;;;5.28;96.37;101334.84;5072187;28;20471;-68
2022/11/29 08:14:14;;;;;;;37.17;14.33;;;;;;;5.35;95.97;101326.59;5072457;28;20481;-68
2022/11/29 08:16:40;;;;;;;32.77;15.10;;;;;;;5.39;95.73;101329.59;5072498;28;20437;-69
2022/11/29 08:19:07;;;;;;;41.30;14.27;;;;;;;5.43;95.77;101341.47;5072469;28;20445;-68
2022/11/29 08:21:34;;;;;;;35.53;12.83;;;;;;;5.42;95.45;101339.84;5072389;28;20496;-68
2022/11/29 08:24:00;;;;;;;31.80;12.83;;;;;;;5.35;96.00;101340.03;5072348;28;20437;-68
2022/11/29 08:26:28;;;;;;;31.17;13.67;;;;;;;5.25;96.44;101342.56;5072386;28;20481;-68
2022/11/29 08:28:55;;;;;;;27.90;13.83;;;;;;;5.25;96.54;101339.88;5072314;28;20452;-68
2022/11/29 08:31:22;;;;;;;34.80;13.37;;;;;;;5.32;96.54;101351.28;5071948;28;20496;-69
2022/11/29 08:33:48;;;;;;;35.30;14.20;;;;;;;5.28;97.97;101350.16;5072205;28;20482;-68
2022/11/29 08:36:17;;;;;;;31.93;15.00;;;;;;;5.38;97.69;101352.97;5072245;28;20441;-68
2022/11/29 08:38:44;;;;;;;30.30;13.33;;;;;;;5.47;97.38;101340.72;5072177;28;20441;-68
2022/11/29 08:41:13;;;;;;;29.47;12.97;;;;;;;5.49;97.49;101346.69;5071753;28;20457;-68
2022/11/29 08:43:41;;;;;;;34.20;16.13;;;;;;;5.62;97.47;101339.31;5072117;28;20536;-68
2022/11/29 08:46:08;;;;;;;33.17;14.43;;;;;;;5.68;97.21;101343.69;5071822;28;20528;-68
2022/11/29 08:48:35;;;;;;;33.10;13.00;;;;;;;5.61;97.23;101346.56;5071914;28;20477;-68
2022/11/29 08:51:03;;;;;;;33.70;13.30;;;;;;;5.61;97.19;101351.13;5071946;28;20461;-69
2022/11/29 08:53:41;;;;;;;35.63;14.50;;;;;;;5.68;97.25;101347.19;5071152;28;20481;-71
2022/11/29 08:56:08;;;;;;;34.33;15.13;;;;;;;5.70;96.92;101357.69;5071922;28;20418;-69
2022/11/29 08:58:35;;;;;;;32.50;13.70;;;;;;;5.69;97.35;101356.88;5071908;28;20535;-71
2022/11/29 09:01:04;;;;;;;36.80;14.20;;;;;;;5.77;97.34;101351.06;5026973;28;1279515;-70
2022/11/29 09:06:16;;;;;;;37.27;13.53;;;;;;;5.89;96.82;101360.88;5072636;28;20882;-70
2022/11/29 09:08:44;;;;;;;29.00;13.50;;;;;;;5.92;96.49;101360.41;5072575;28;20445;-70
2022/11/29 09:11:13;;;;;;;32.30;14.53;;;;;;;5.94;96.50;101364.50;5072668;28;20462;-70
2022/11/29 09:13:40;;;;;;;32.20;13.50;;;;;;;5.91;96.87;101362.25;5072543;28;20481;-70
2022/11/29 09:16:11;;;;;;;32.67;14.20;;;;;;;6.07;95.96;101374.88;5072385;28;20429;-70
2022/11/29 09:18:39;;;;;;;35.30;14.37;;;;;;;6.14;95.86;101363.09;5072843;28;20417;-70
2022/11/29 09:21:06;;;;;;;27.03;13.83;;;;;;;6.23;95.41;101378.53;5072286;28;21002;-70
2022/11/29 09:23:33;;;;;;;37.57;13.53;;;;;;;6.22;95.28;101382.28;5075163;28;20437;-70
2022/11/29 09:25:59;;;;;;;30.83;13.20;;;;;;;6.24;95.36;101382.84;5076313;28;20436;-69
2022/11/29 09:28:26;;;;;;;29.13;13.90;;;;;;;6.25;95.21;101379.09;5076072;28;20481;-70
2022/11/29 09:30:53;;;;;;;34.43;14.47;;;;;;;6.23;95.34;101375.03;5076132;28;20500;-70
2022/11/29 09:33:21;;;;;;;32.03;13.53;;;;;;;6.20;95.11;101378.22;5075857;28;20516;-70
2022/11/29 09:35:48;;;;;;;36.43;14.73;;;;;;;6.25;94.68;101384.47;5076187;28;20445;-70
2022/11/29 09:38:14;;;;;;;30.87;14.50;;;;;;;6.29;94.06;101380.22;5076063;28;20448;-70
2022/11/29 09:40:48;;;;;;;29.50;14.30;;;;;;;6.27;94.09;101376.94;5075659;28;20523;-69
2022/11/29 09:43:23;;;;;;;38.50;14.53;;;;;;;6.22;93.90;101381.47;5075640;28;20994;-70
2022/11/29 09:45:57;;;;;;;27.30;13.87;;;;;;;6.26;93.41;101383.41;5076005;28;20512;-70
2022/11/29 09:48:39;;;;;;;30.97;14.37;;;;;;;6.30;93.12;101376.47;5075991;28;20437;-70
2022/11/29 09:51:17;;;;;;;29.43;13.67;;;;;;;6.36;92.97;101381.88;5075927;28;20484;-70
2022/11/29 09:53:58;;;;;;;29.70;13.03;;;;;;;6.40;93.22;101377.63;5075632;28;20469;-69
2022/11/29 09:56:30;;;;;;;28.40;13.73;;;;;;;6.35;93.80;101377.56;5075820;28;20467;-70
2022/11/29 09:59:00;;;;;;;29.90;13.30;;;;;;;6.44;93.74;101384.13;5073032;28;20879;-70
2022/11/29 10:01:30;;;;;;;30.10;13.50;;;;;;;6.51;93.29;101379.38;5068174;28;20496;-70
2022/11/29 10:04:02;;;;;;;38.13;14.27;;;;;;;6.50;92.96;101377.72;5074867;28;20549;-69
2022/11/29 10:06:35;;;;;;;39.73;13.97;;;;;;;6.45;92.34;101381.19;5075633;28;20425;-70
2022/11/29 10:09:07;;;;;;;32.33;13.83;;;;;;;6.49;92.73;101381.50;5074283;28;20870;-70
2022/11/29 10:11:38;;;;;;;26.07;12.60;;;;;;;6.46;91.92;101388.22;5074490;28;20507;-69
2022/11/29 10:14:11;;;;;;;33.87;12.70;;;;;;;6.45;92.32;101388.44;5073305;28;20480;-69
2022/11/29 10:16:44;;;;;;;28.73;13.60;;;;;;;6.43;92.10;101396.78;5074580;28;20461;-70
2022/11/29 10:19:18;;;;;;;27.00;13.10;;;;;;;6.35;92.09;101391.84;5075356;28;20430;-69
2022/11/29 10:21:59;;;;;;;29.87;12.90;;;;;;;6.41;91.60;101400.78;5074097;28;20499;-70
2022/11/29 10:24:28;;;;;;;29.27;13.40;;;;;;;6.36;91.89;101396.16;5075247;28;20426;-70
2022/11/29 10:26:55;;;;;;;31.97;13.00;;;;;;;6.38;91.71;101393.22;5073910;28;20458;-69
2022/11/29 10:29:23;;;;;;;32.63;13.23;;;;;;;6.43;91.80;101393.28;5074912;28;20453;-69
2022/11/29 10:31:49;;;;;;;33.73;14.03;;;;;;;6.43;92.24;101398.66;5072711;28;20465;-70
2022/11/29 10:34:19;;;;;;;40.80;14.70;;;;;;;6.48;91.86;101391.44;5071794;28;20485;-69
2022/11/29 10:36:49;;;;;;;33.60;12.60;;;;;;;6.49;92.14;101400.31;5075039;28;20437;-70
2022/11/29 10:39:23;;;;;;;28.80;13.40;;;;;;;6.57;92.15;101406.06;5073898;28;20472;-70
2022/11/29 10:41:54;;;;;;;27.93;12.23;;;;;;;6.66;92.27;101402.91;5073541;28;20910;-70
2022/11/29 10:44:21;;;;;;;28.43;13.50;;;;;;;6.69;92.32;101405.91;5060005;28;20981;-70
2022/11/29 10:46:48;;;;;;;34.77;14.27;;;;;;;6.59;92.38;101395.03;5071200;28;20496;-70
2022/11/29 10:49:18;;;;;;;30.23;13.47;;;;;;;6.68;92.42;101398.09;5073824;28;20437;-70
2022/11/29 10:51:45;;;;;;;33.50;14.20;;;;;;;6.70;92.38;101394.09;5073360;28;20483;-70
2022/11/29 10:54:39;;;;;;;36.80;13.83;;;;;;;6.71;92.20;101394.88;5074084;28;20547;-69
2022/11/29 10:57:14;;;;;;;35.53;14.07;;;;;;;6.73;91.77;101395.44;5074633;28;20426;-69
2022/11/29 10:59:41;;;;;;;28.50;14.03;;;;;;;6.72;91.44;101402.69;5074640;28;20432;-69
2022/11/29 11:02:17;;;;;;;30.47;12.00;;;;;;;6.72;90.95;101397.31;5074156;28;20476;-70
2022/11/29 11:04:48;;;;;;;37.60;14.47;;;;;;;6.71;90.64;101398.38;5074516;28;20430;-69
2022/11/29 11:07:24;;;;;;;27.77;12.90;;;;;;;6.69;90.68;101403.22;5074794;28;20802;-71
2022/11/29 11:09:53;;;;;;;34.20;13.63;;;;;;;6.65;91.25;101401.31;5074332;28;20429;-69
2022/11/29 11:12:22;;;;;;;31.23;12.37;;;;;;;6.53;91.70;101398.75;5074316;28;20441;-71
2022/11/29 11:14:50;;;;;;;43.20;15.37;;;;;;;6.56;92.10;101395.56;5073888;28;20481;-70
2022/11/29 11:17:24;;;;;;;30.17;13.67;;;;;;;6.62;92.30;101391.03;5074225;28;20449;-70
2022/11/29 11:19:59;;;;;;;30.87;14.10;;;;;;;6.62;92.17;101407.19;5074157;28;20526;-71
2022/11/29 11:22:27;;;;;;;29.93;13.37;;;;;;;6.66;92.18;101409.13;5074201;28;20801;-70
2022/11/29 11:24:59;;;;;;;27.53;12.70;;;;;;;6.70;92.01;101399.47;5074089;28;20481;-71
2022/11/29 11:27:32;;;;;;;32.33;13.03;;;;;;;6.74;92.10;101402.47;5074033;28;20453;-70
2022/11/29 11:30:00;;;;;;;32.47;13.30;;;;;;;6.64;92.08;101402.34;5073601;28;20449;-69
2022/11/29 11:32:26;;;;;;;30.00;11.97;;;;;;;6.66;92.40;101403.72;5073632;28;20488;-70
2022/11/29 11:34:57;;;;;;;35.43;13.40;;;;;;;6.66;92.60;101409.13;5073817;28;20484;-70
2022/11/29 11:37:26;;;;;;;29.53;12.47;;;;;;;6.71;92.43;101413.72;5073828;28;20871;-69
2022/11/29 11:39:55;;;;;;;34.83;14.70;;;;;;;6.71;92.04;101411.84;5073429;28;20536;-70
2022/11/29 11:42:37;;;;;;;28.50;13.17;;;;;;;6.73;91.56;101416.97;5073734;28;20445;-69
2022/11/29 11:45:20;;;;;;;34.77;12.90;;;;;;;6.79;90.97;101413.28;5073456;28;20823;-71
2022/11/29 11:47:49;;;;;;;30.33;14.47;;;;;;;6.80;90.43;101409.50;5073707;28;20422;-70
2022/11/29 11:50:26;;;;;;;30.57;11.70;;;;;;;6.78;90.64;101415.16;5073539;28;20469;-69
2022/11/29 11:52:56;;;;;;;29.93;13.93;;;;;;;6.78;90.39;101415.16;5073286;28;20432;-70
2022/11/29 11:55:30;;;;;;;29.10;13.07;;;;;;;6.80;90.73;101415.72;5073512;28;20564;-69